Time;durP1;ratioP1;P1;durP2;ratioP2;P2;SDS_P1;SDS_P2;PMS_P1;PMS_P2;Temp;Humidity;BMP_temperature;BMP_pressure;BME280_temperature;BME280_humidity;BME280_pressure;Samples;Min_cycle;Max_cycle;Signal;HPM_P1;HPM_P2
2023/09/18 00:01:58;;;;;;;1.77;1.67;;;;;;;;;;5143193;27;20529;-80
2023/09/18 00:04:24;;;;;;;1.70;1.60;;;;;;;;;;5139085;27;20516;-80
2023/09/18 00:06:50;;;;;;;1.13;1.13;;;;;;;;;;5139457;27;20027;-81
2023/09/18 00:09:16;;;;;;;1.13;1.13;;;;;;;;;;5140392;27;20100;-81
2023/09/18 00:11:42;;;;;;;1.63;1.52;;;;;;;;;;5128322;27;20027;-80
2023/09/18 00:14:09;;;;;;;1.77;1.67;;;;;;;;;;5119798;28;20060;-80
2023/09/18 00:16:35;;;;;;;1.90;1.80;;;;;;;;;;5119182;28;20486;-81
2023/09/18 00:19:02;;;;;;;1.50;1.40;;;;;;;;;;5120180;28;20032;-80
2023/09/18 00:21:30;;;;;;;1.50;1.40;;;;;;;;;;5126812;27;20034;-80
2023/09/18 00:23:57;;;;;;;1.75;1.65;;;;;;;;;;5144176;27;20023;-81
2023/09/18 00:26:24;;;;;;;1.98;1.88;;;;;;;;;;5142845;27;20020;-81
2023/09/18 00:28:50;;;;;;;1.40;1.38;;;;;;;;;;5143748;27;20094;-81
2023/09/18 00:31:16;;;;;;;1.70;1.60;;;;;;;;;;5158313;27;20027;-81
2023/09/18 00:33:42;;;;;;;1.67;1.58;;;;;;;;;;5137024;27;20072;-81
2023/09/18 00:36:08;;;;;;;2.25;2.05;;;;;;;;;;5127025;28;20038;-81
2023/09/18 00:38:34;;;;;;;1.33;1.33;;;;;;;;;;5124721;28;20015;-82
2023/09/18 00:41:00;;;;;;;1.88;1.77;;;;;;;;;;5123114;27;20092;-80
2023/09/18 00:43:26;;;;;;;1.63;1.52;;;;;;;;;;5123797;28;20024;-80
2023/09/18 00:45:52;;;;;;;1.30;1.20;;;;;;;;;;5122323;28;20023;-82
2023/09/18 00:48:18;;;;;;;1.23;1.23;;;;;;;;;;5122720;28;20020;-80
2023/09/18 00:50:45;;;;;;;1.50;1.40;;;;;;;;;;5136639;27;20054;-80
2023/09/18 00:53:14;;;;;;;1.52;1.42;;;;;;;;;;5142088;27;20027;-81
2023/09/18 00:55:40;;;;;;;1.52;1.42;;;;;;;;;;5143068;27;20031;-79
2023/09/18 00:58:06;;;;;;;1.55;1.45;;;;;;;;;;5156045;27;20469;-80
2023/09/18 01:00:32;;;;;;;1.20;1.20;;;;;;;;;;5143962;27;20035;-80
2023/09/18 01:03:00;;;;;;;1.40;1.30;;;;;;;;;;5122217;28;20043;-80
2023/09/18 01:05:26;;;;;;;1.10;1.10;;;;;;;;;;5122611;28;20054;-80
2023/09/18 01:07:52;;;;;;;1.50;1.40;;;;;;;;;;5122304;28;20015;-80
2023/09/18 01:10:19;;;;;;;1.60;1.50;;;;;;;;;;5121510;27;20522;-80
2023/09/18 01:12:50;;;;;;;1.20;1.17;;;;;;;;;;5130505;27;20020;-80
2023/09/18 01:15:25;;;;;;;1.20;1.10;;;;;;;;;;5134952;27;20084;-80
2023/09/18 01:17:51;;;;;;;1.10;1.10;;;;;;;;;;5122598;28;20055;-81
2023/09/18 01:20:17;;;;;;;1.40;1.38;;;;;;;;;;5123677;27;20036;-81
2023/09/18 01:22:43;;;;;;;1.33;1.25;;;;;;;;;;5142878;27;20024;-81
2023/09/18 01:25:09;;;;;;;1.10;1.10;;;;;;;;;;5142967;27;20015;-80
2023/09/18 01:27:35;;;;;;;0.85;0.85;;;;;;;;;;5133246;27;20431;-80
2023/09/18 01:30:02;;;;;;;1.15;1.15;;;;;;;;;;5137308;27;20024;-81
2023/09/18 01:32:30;;;;;;;1.00;1.00;;;;;;;;;;5145447;27;20034;-81
2023/09/18 01:34:57;;;;;;;1.02;1.02;;;;;;;;;;5150898;27;20016;-81
2023/09/18 01:37:32;;;;;;;1.20;1.10;;;;;;;;;;5148086;27;20026;-80
2023/09/18 01:39:59;;;;;;;1.00;1.00;;;;;;;;;;5142240;27;20043;-80
2023/09/18 01:42:25;;;;;;;1.33;1.30;;;;;;;;;;5138007;27;20318;-81
2023/09/18 01:44:52;;;;;;;1.10;1.10;;;;;;;;;;5122716;27;20020;-81
2023/09/18 01:47:19;;;;;;;1.00;1.00;;;;;;;;;;5122723;28;20028;-81
2023/09/18 01:49:46;;;;;;;1.20;1.20;;;;;;;;;;5122450;28;20349;-80
2023/09/18 01:52:12;;;;;;;1.00;1.00;;;;;;;;;;5131312;27;20078;-81
2023/09/18 01:54:38;;;;;;;1.27;1.20;;;;;;;;;;5142598;27;20031;-81
2023/09/18 01:57:07;;;;;;;1.02;1.02;;;;;;;;;;5143198;27;20034;-80
2023/09/18 01:59:33;;;;;;;1.08;1.08;;;;;;;;;;5161828;27;20018;-81
2023/09/18 02:01:59;;;;;;;1.08;1.08;;;;;;;;;;5153117;27;20382;-81
2023/09/18 02:04:27;;;;;;;1.00;1.00;;;;;;;;;;5122226;28;20033;-81
2023/09/18 02:06:53;;;;;;;0.90;0.90;;;;;;;;;;5121737;28;20026;-80
2023/09/18 02:09:19;;;;;;;1.00;1.00;;;;;;;;;;5120364;28;20051;-80
2023/09/18 02:11:48;;;;;;;0.70;0.70;;;;;;;;;;5120491;28;20364;-80
2023/09/18 02:14:14;;;;;;;0.90;0.90;;;;;;;;;;5122264;28;20020;-82
2023/09/18 02:16:41;;;;;;;1.00;1.00;;;;;;;;;;5119468;28;20028;-81
2023/09/18 02:19:08;;;;;;;1.25;1.17;;;;;;;;;;5120552;28;20024;-82
2023/09/18 02:21:35;;;;;;;1.08;1.08;;;;;;;;;;5120520;28;20099;-80
2023/09/18 02:24:01;;;;;;;1.13;1.02;;;;;;;;;;5122246;27;20038;-81
2023/09/18 02:26:28;;;;;;;1.15;1.08;;;;;;;;;;5140758;27;20071;-80
2023/09/18 02:28:54;;;;;;;0.80;0.80;;;;;;;;;;5143634;27;20204;-81
2023/09/18 02:31:20;;;;;;;0.90;0.90;;;;;;;;;;5140594;27;20023;-80
2023/09/18 02:33:47;;;;;;;1.10;1.10;;;;;;;;;;5140670;27;20027;-82
2023/09/18 02:36:13;;;;;;;1.00;1.00;;;;;;;;;;5141734;27;20101;-82
2023/09/18 02:38:39;;;;;;;0.77;0.77;;;;;;;;;;5141731;27;20023;-81
2023/09/18 02:41:05;;;;;;;0.90;0.90;;;;;;;;;;5141030;27;20049;-81
2023/09/18 02:43:31;;;;;;;0.82;0.82;;;;;;;;;;5138859;27;20023;-81
2023/09/18 02:45:57;;;;;;;0.90;0.90;;;;;;;;;;5140725;27;20020;-79
2023/09/18 02:48:23;;;;;;;0.85;0.85;;;;;;;;;;5140999;27;20458;-80
2023/09/18 02:50:49;;;;;;;0.95;0.95;;;;;;;;;;5141485;27;20034;-81
2023/09/18 02:53:22;;;;;;;0.90;0.90;;;;;;;;;;5145562;27;20027;-80
2023/09/18 02:55:50;;;;;;;0.98;0.98;;;;;;;;;;5149449;27;20033;-81
2023/09/18 02:58:16;;;;;;;0.85;0.85;;;;;;;;;;5160839;27;20023;-81
2023/09/18 03:00:49;;;;;;;0.90;0.90;;;;;;;;;;5151742;27;20023;-81
2023/09/18 03:03:16;;;;;;;0.90;0.90;;;;;;;;;;5153348;27;20023;-81
2023/09/18 03:05:42;;;;;;;0.60;0.60;;;;;;;;;;5147705;27;20030;-80
2023/09/18 03:08:09;;;;;;;0.80;0.80;;;;;;;;;;5147313;27;20019;-80
2023/09/18 03:10:40;;;;;;;1.00;1.00;;;;;;;;;;5151579;27;20444;-81
2023/09/18 03:13:07;;;;;;;0.70;0.70;;;;;;;;;;5140085;27;20024;-79
2023/09/18 03:15:34;;;;;;;0.80;0.80;;;;;;;;;;5129573;27;20020;-79
2023/09/18 03:18:00;;;;;;;0.70;0.70;;;;;;;;;;5139220;27;20110;-79
2023/09/18 03:20:27;;;;;;;0.50;0.50;;;;;;;;;;5144475;27;20465;-80
2023/09/18 03:22:54;;;;;;;0.60;0.60;;;;;;;;;;5119030;28;20043;-80
2023/09/18 03:25:21;;;;;;;0.70;0.70;;;;;;;;;;5119543;28;20023;-80
2023/09/18 03:27:47;;;;;;;1.00;1.00;;;;;;;;;;5132139;27;20022;-80
2023/09/18 03:30:15;;;;;;;0.65;0.65;;;;;;;;;;5146069;27;20019;-80
2023/09/18 03:32:48;;;;;;;0.60;0.60;;;;;;;;;;5127976;27;20442;-80
2023/09/18 03:35:18;;;;;;;0.65;0.65;;;;;;;;;;5115705;28;20121;-79
2023/09/18 03:37:51;;;;;;;0.60;0.60;;;;;;;;;;5117224;28;20522;-78
2023/09/18 03:40:18;;;;;;;0.77;0.77;;;;;;;;;;5116833;28;20028;-80
2023/09/18 03:42:45;;;;;;;0.50;0.50;;;;;;;;;;5116573;28;20035;-79
2023/09/18 03:45:11;;;;;;;0.55;0.55;;;;;;;;;;5120630;28;20107;-81
2023/09/18 03:47:41;;;;;;;0.50;0.50;;;;;;;;;;5119850;28;20059;-80
2023/09/18 03:50:08;;;;;;;0.60;0.60;;;;;;;;;;5125812;28;20023;-81
2023/09/18 03:52:34;;;;;;;0.70;0.70;;;;;;;;;;5130731;28;20102;-80
2023/09/18 03:55:00;;;;;;;0.63;0.63;;;;;;;;;;5140781;28;20026;-80
2023/09/18 03:57:26;;;;;;;0.50;0.50;;;;;;;;;;5153244;27;20043;-79
2023/09/18 03:59:52;;;;;;;0.60;0.60;;;;;;;;;;5168606;27;20064;-79
2023/09/18 04:02:18;;;;;;;0.85;0.85;;;;;;;;;;5136644;28;20087;-81
2023/09/18 04:04:44;;;;;;;0.63;0.63;;;;;;;;;;5121083;28;20031;-81
2023/09/18 04:07:11;;;;;;;0.80;0.80;;;;;;;;;;5123993;27;20068;-80
2023/09/18 04:09:38;;;;;;;0.60;0.60;;;;;;;;;;5162990;27;20393;-80
2023/09/18 04:12:07;;;;;;;0.70;0.70;;;;;;;;;;5150556;27;20019;-77
2023/09/18 04:14:33;;;;;;;1.08;0.98;;;;;;;;;;5159069;27;20390;-78
2023/09/18 04:17:02;;;;;;;0.55;0.55;;;;;;;;;;5164995;27;20060;-78
2023/09/18 04:19:28;;;;;;;0.60;0.60;;;;;;;;;;5161355;27;20048;-79
2023/09/18 04:21:55;;;;;;;0.68;0.68;;;;;;;;;;5163209;27;20029;-79
2023/09/18 04:24:21;;;;;;;0.50;0.50;;;;;;;;;;5148176;27;20031;-78
2023/09/18 04:26:47;;;;;;;0.60;0.60;;;;;;;;;;5143767;27;20049;-79
2023/09/18 04:29:13;;;;;;;0.70;0.70;;;;;;;;;;5143557;27;20023;-76
2023/09/18 04:31:39;;;;;;;0.85;0.73;;;;;;;;;;5141438;28;20035;-78
2023/09/18 04:34:05;;;;;;;0.50;0.50;;;;;;;;;;5140975;28;20023;-79
2023/09/18 04:36:31;;;;;;;0.63;0.63;;;;;;;;;;5131066;27;20118;-77
2023/09/18 04:38:58;;;;;;;0.70;0.70;;;;;;;;;;5140916;27;20027;-78
2023/09/18 04:41:24;;;;;;;0.60;0.60;;;;;;;;;;5138633;27;20034;-77
2023/09/18 04:43:50;;;;;;;0.63;0.63;;;;;;;;;;5139076;27;20023;-78
2023/09/18 04:46:17;;;;;;;0.73;0.73;;;;;;;;;;5122713;28;20106;-78
2023/09/18 04:48:43;;;;;;;0.50;0.50;;;;;;;;;;5124486;28;20045;-78
2023/09/18 04:51:09;;;;;;;0.55;0.55;;;;;;;;;;5123153;28;20019;-77
2023/09/18 04:53:35;;;;;;;0.50;0.50;;;;;;;;;;5124353;28;20151;-76
2023/09/18 04:56:03;;;;;;;0.63;0.60;;;;;;;;;;5142826;27;20409;-77
2023/09/18 04:58:29;;;;;;;0.68;0.60;;;;;;;;;;5137900;27;20023;-78
2023/09/18 05:00:55;;;;;;;0.70;0.70;;;;;;;;;;5142604;28;20080;-76
2023/09/18 05:03:22;;;;;;;0.57;0.57;;;;;;;;;;5141416;28;20023;-79
2023/09/18 05:05:48;;;;;;;0.60;0.60;;;;;;;;;;5143315;27;20107;-79
2023/09/18 05:08:15;;;;;;;0.63;0.63;;;;;;;;;;5138010;27;20057;-79
2023/09/18 05:10:43;;;;;;;0.60;0.60;;;;;;;;;;5140026;27;20020;-79
2023/09/18 05:13:10;;;;;;;0.40;0.40;;;;;;;;;;5151626;27;20026;-78
2023/09/18 05:15:37;;;;;;;0.57;0.57;;;;;;;;;;5149739;27;20019;-80
2023/09/18 05:18:03;;;;;;;0.50;0.50;;;;;;;;;;5149060;27;20038;-79
2023/09/18 05:20:30;;;;;;;0.63;0.63;;;;;;;;;;5162503;27;20023;-79
2023/09/18 05:22:57;;;;;;;0.55;0.55;;;;;;;;;;5165797;27;20125;-78
2023/09/18 05:25:33;;;;;;;0.57;0.57;;;;;;;;;;5158835;27;20019;-79
2023/09/18 05:28:00;;;;;;;0.50;0.50;;;;;;;;;;5140000;27;20015;-80
2023/09/18 05:30:30;;;;;;;0.60;0.60;;;;;;;;;;5152514;27;20031;-80
2023/09/18 05:32:57;;;;;;;0.50;0.50;;;;;;;;;;5147756;27;20026;-80
2023/09/18 05:35:23;;;;;;;0.50;0.50;;;;;;;;;;5146080;27;20362;-80
2023/09/18 05:37:56;;;;;;;0.40;0.40;;;;;;;;;;5146903;27;20473;-79
2023/09/18 05:40:22;;;;;;;0.50;0.50;;;;;;;;;;5146993;27;20027;-79
2023/09/18 05:42:49;;;;;;;0.50;0.50;;;;;;;;;;5146751;27;20039;-80
2023/09/18 05:45:15;;;;;;;0.60;0.60;;;;;;;;;;5146680;27;20043;-80
2023/09/18 05:47:42;;;;;;;0.70;0.70;;;;;;;;;;5126996;27;20516;-79
2023/09/18 05:50:16;;;;;;;0.80;0.80;;;;;;;;;;5125472;27;20448;-80
2023/09/18 05:52:42;;;;;;;0.70;0.70;;;;;;;;;;5124813;28;20012;-78
2023/09/18 05:55:08;;;;;;;0.60;0.60;;;;;;;;;;5127128;28;20128;-80
2023/09/18 05:57:35;;;;;;;0.60;0.60;;;;;;;;;;5142751;27;20027;-80
2023/09/18 06:00:01;;;;;;;0.50;0.50;;;;;;;;;;5161905;27;20382;-81
2023/09/18 06:02:27;;;;;;;0.80;0.80;;;;;;;;;;5166637;27;20109;-81
2023/09/18 06:05:06;;;;;;;0.75;0.50;;;;;;;;;;5168033;27;20014;-80
2023/09/18 06:07:32;;;;;;;0.80;0.75;;;;;;;;;;5153087;27;20091;-80
2023/09/18 06:09:59;;;;;;;0.70;0.70;;;;;;;;;;5127670;27;20031;-79
2023/09/18 06:12:25;;;;;;;0.60;0.60;;;;;;;;;;5126158;28;20030;-80
2023/09/18 06:14:51;;;;;;;0.55;0.55;;;;;;;;;;5124205;28;20030;-80
2023/09/18 06:17:17;;;;;;;0.70;0.70;;;;;;;;;;5130973;27;20035;-79
2023/09/18 06:19:45;;;;;;;0.80;0.80;;;;;;;;;;5144588;27;20027;-80
2023/09/18 06:22:11;;;;;;;0.55;0.55;;;;;;;;;;5146264;27;20036;-81
2023/09/18 06:24:37;;;;;;;0.63;0.63;;;;;;;;;;5146364;27;20067;-81
2023/09/18 06:27:07;;;;;;;0.70;0.70;;;;;;;;;;5146179;27;20430;-80
2023/09/18 06:29:33;;;;;;;0.80;0.80;;;;;;;;;;5144460;27;20015;-79
2023/09/18 06:31:59;;;;;;;0.50;0.50;;;;;;;;;;5144402;27;20023;-79
2023/09/18 06:34:25;;;;;;;0.70;0.70;;;;;;;;;;5145428;27;20126;-79
2023/09/18 06:36:51;;;;;;;1.05;1.05;;;;;;;;;;5146749;27;20027;-80
2023/09/18 06:39:18;;;;;;;0.95;0.95;;;;;;;;;;5144292;27;20034;-79
2023/09/18 06:41:45;;;;;;;0.82;0.80;;;;;;;;;;5145332;27;20044;-79
2023/09/18 06:44:11;;;;;;;1.20;1.10;;;;;;;;;;5146173;27;20093;-79
2023/09/18 06:46:37;;;;;;;0.95;0.88;;;;;;;;;;5146061;27;20026;-80
2023/09/18 06:49:03;;;;;;;1.20;1.10;;;;;;;;;;5137247;27;20038;-80
2023/09/18 06:51:29;;;;;;;1.60;1.50;;;;;;;;;;5144709;27;20023;-80
2023/09/18 06:53:57;;;;;;;1.23;1.20;;;;;;;;;;5143302;27;20237;-80
2023/09/18 06:56:29;;;;;;;1.77;1.58;;;;;;;;;;5142446;27;20019;-79
2023/09/18 06:58:55;;;;;;;8.75;3.13;;;;;;;;;;5146740;27;20019;-81
2023/09/18 07:01:22;;;;;;;7.57;3.20;;;;;;;;;;5148102;27;20026;-84
2023/09/18 07:03:48;;;;;;;6.57;3.25;;;;;;;;;;5150635;27;20030;-84
2023/09/18 07:06:21;;;;;;;10.18;3.08;;;;;;;;;;5151283;27;20023;-83
2023/09/18 07:08:51;;;;;;;6.00;3.47;;;;;;;;;;5143567;27;20016;-84
2023/09/18 07:11:17;;;;;;;4.13;3.40;;;;;;;;;;5128165;28;20119;-83
2023/09/18 07:13:44;;;;;;;3.45;2.92;;;;;;;;;;5145381;27;20024;-83
2023/09/18 07:16:10;;;;;;;3.28;2.55;;;;;;;;;;5128985;28;20023;-84
2023/09/18 07:18:36;;;;;;;2.42;2.20;;;;;;;;;;5130154;27;20031;-84
2023/09/18 07:21:03;;;;;;;4.78;3.33;;;;;;;;;;5148387;27;20530;-84
2023/09/18 07:23:29;;;;;;;3.80;2.78;;;;;;;;;;5147823;27;20039;-82
2023/09/18 07:25:55;;;;;;;9.85;3.90;;;;;;;;;;5147285;27;20089;-82
2023/09/18 07:28:21;;;;;;;6.05;3.40;;;;;;;;;;5147269;27;20120;-82
2023/09/18 07:30:47;;;;;;;7.85;3.60;;;;;;;;;;5141792;27;20027;-82
2023/09/18 07:33:23;;;;;;;12.55;3.33;;;;;;;;;;5146093;27;20489;-84
2023/09/18 07:35:51;;;;;;;7.05;3.10;;;;;;;;;;5147655;27;20023;-83
2023/09/18 07:38:19;;;;;;;4.75;2.80;;;;;;;;;;5147546;27;20027;-83
2023/09/18 07:40:46;;;;;;;5.43;3.17;;;;;;;;;;5148627;27;20450;-83
2023/09/18 07:43:12;;;;;;;3.90;2.63;;;;;;;;;;5148018;27;20020;-83
2023/09/18 07:45:42;;;;;;;5.93;3.05;;;;;;;;;;5147509;27;20027;-83
2023/09/18 07:48:08;;;;;;;4.60;3.25;;;;;;;;;;5148920;27;20018;-83
2023/09/18 07:50:37;;;;;;;9.25;3.30;;;;;;;;;;5135992;27;20371;-84
2023/09/18 07:53:04;;;;;;;4.00;3.60;;;;;;;;;;5128149;28;20031;-83
2023/09/18 07:55:31;;;;;;;3.45;3.03;;;;;;;;;;5109935;28;20030;-84
2023/09/18 07:57:59;;;;;;;6.13;3.10;;;;;;;;;;5140058;27;20043;-84
2023/09/18 08:00:58;;;;;;;;;;;;;;;;;;;;;
2023/09/18 08:06:19;;;;;;;2.97;2.42;;;;;;;;;;5087850;28;20540;-83
2023/09/18 08:08:46;;;;;;;2.90;2.70;;;;;;;;;;5086872;28;20036;-83
2023/09/18 08:11:12;;;;;;;3.13;2.85;;;;;;;;;;5088144;28;20025;-82
2023/09/18 08:13:38;;;;;;;4.00;2.97;;;;;;;;;;5083901;28;20024;-83
2023/09/18 08:16:08;;;;;;;2.53;2.33;;;;;;;;;;5085175;28;20071;-84
2023/09/18 08:18:34;;;;;;;2.53;2.33;;;;;;;;;;5087914;28;20360;-84
2023/09/18 08:21:00;;;;;;;4.05;3.47;;;;;;;;;;5087030;28;20031;-85
2023/09/18 08:23:26;;;;;;;3.92;3.05;;;;;;;;;;5085069;28;20052;-84
2023/09/18 08:25:55;;;;;;;4.60;3.00;;;;;;;;;;5086936;28;20108;-81
2023/09/18 08:28:23;;;;;;;3.25;2.80;;;;;;;;;;5085491;28;20047;-83
2023/09/18 08:30:49;;;;;;;3.50;2.85;;;;;;;;;;5080931;28;20021;-79
2023/09/18 08:33:15;;;;;;;3.60;3.30;;;;;;;;;;5061513;28;20029;-82
2023/09/18 08:35:41;;;;;;;3.88;2.80;;;;;;;;;;5064666;28;20060;-80
2023/09/18 08:38:08;;;;;;;4.50;3.40;;;;;;;;;;5065594;28;20035;-83
2023/09/18 08:40:35;;;;;;;5.88;3.35;;;;;;;;;;5065185;28;20384;-81
2023/09/18 08:43:03;;;;;;;4.47;3.50;;;;;;;;;;5078202;28;20391;-83
2023/09/18 08:45:36;;;;;;;5.53;3.60;;;;;;;;;;5087764;28;20009;-79
2023/09/18 08:48:02;;;;;;;5.93;3.47;;;;;;;;;;5089087;28;20390;-82
2023/09/18 08:50:29;;;;;;;9.10;4.40;;;;;;;;;;5090216;28;20051;-82
2023/09/18 08:52:56;;;;;;;4.72;3.50;;;;;;;;;;5090202;28;20052;-81
2023/09/18 08:55:22;;;;;;;5.57;3.60;;;;;;;;;;5089117;28;20081;-83
2023/09/18 08:57:49;;;;;;;4.15;3.15;;;;;;;;;;5079519;28;20020;-80
2023/09/18 09:00:19;;;;;;;5.70;3.60;;;;;;;;;;5085569;28;20025;-84
2023/09/18 09:02:45;;;;;;;4.03;3.40;;;;;;;;;;5080133;28;20029;-84
2023/09/18 09:05:12;;;;;;;5.35;3.83;;;;;;;;;;5066403;28;20494;-83
2023/09/18 09:07:38;;;;;;;4.05;3.30;;;;;;;;;;5066522;28;20025;-80
2023/09/18 09:10:04;;;;;;;4.00;3.60;;;;;;;;;;5066973;28;20025;-79
2023/09/18 09:12:51;;;;;;;3.13;2.92;;;;;;;;;;5065583;28;20097;-79
2023/09/18 09:15:17;;;;;;;6.10;3.38;;;;;;;;;;5064441;28;20025;-84
2023/09/18 09:17:46;;;;;;;6.28;3.72;;;;;;;;;;5062900;28;20036;-81
2023/09/18 09:20:15;;;;;;;7.15;3.90;;;;;;;;;;5065160;28;20400;-81
2023/09/18 09:22:42;;;;;;;5.88;3.05;;;;;;;;;;5065958;28;20127;-82
2023/09/18 09:25:20;;;;;;;4.82;3.47;;;;;;;;;;5086096;28;20043;-81
2023/09/18 09:27:46;;;;;;;2.97;2.67;;;;;;;;;;5085378;28;20047;-80
2023/09/18 09:30:18;;;;;;;3.70;2.75;;;;;;;;;;5070658;28;20430;-80
2023/09/18 09:32:55;;;;;;;3.40;3.10;;;;;;;;;;5066870;28;20036;-81
2023/09/18 09:35:29;;;;;;;4.05;3.08;;;;;;;;;;5059562;28;20200;-81
2023/09/18 09:38:00;;;;;;;4.88;3.38;;;;;;;;;;5065090;28;20027;-81
2023/09/18 09:40:27;;;;;;;4.47;2.75;;;;;;;;;;5066319;28;20036;-80
2023/09/18 09:43:00;;;;;;;5.22;3.20;;;;;;;;;;5072188;28;20055;-83
2023/09/18 09:45:35;;;;;;;5.85;3.30;;;;;;;;;;5069392;28;20105;-79
2023/09/18 09:48:04;;;;;;;3.05;2.85;;;;;;;;;;5070845;28;20080;-81
2023/09/18 09:50:32;;;;;;;3.80;2.20;;;;;;;;;;5071755;28;20040;-79
2023/09/18 09:52:58;;;;;;;4.18;2.80;;;;;;;;;;5072320;28;20017;-78
2023/09/18 09:55:31;;;;;;;3.58;3.28;;;;;;;;;;5068851;28;20051;-79
2023/09/18 09:58:01;;;;;;;5.13;3.30;;;;;;;;;;5083346;28;20013;-82
2023/09/18 10:00:31;;;;;;;11.80;4.28;;;;;;;;;;5098813;28;20082;-81
2023/09/18 10:02:59;;;;;;;8.25;3.25;;;;;;;;;;5098719;28;20355;-81
2023/09/18 10:05:29;;;;;;;5.68;3.03;;;;;;;;;;5098605;28;20120;-81
2023/09/18 10:07:58;;;;;;;4.80;2.95;;;;;;;;;;5093777;28;20013;-78
2023/09/18 10:10:26;;;;;;;4.80;2.83;;;;;;;;;;5088395;28;20035;-79
2023/09/18 10:12:55;;;;;;;6.45;3.35;;;;;;;;;;5079511;28;20039;-78
2023/09/18 10:15:23;;;;;;;5.32;3.00;;;;;;;;;;5079904;28;20092;-79
2023/09/18 10:17:50;;;;;;;5.18;3.33;;;;;;;;;;5079493;28;20441;-79
2023/09/18 10:20:20;;;;;;;5.95;3.50;;;;;;;;;;5080737;28;20024;-79
2023/09/18 10:22:47;;;;;;;2.40;2.10;;;;;;;;;;5077788;28;20107;-78
2023/09/18 10:25:17;;;;;;;2.88;2.53;;;;;;;;;;5075277;28;20016;-79
2023/09/18 10:27:45;;;;;;;7.80;3.33;;;;;;;;;;5065862;28;20150;-77
2023/09/18 10:30:12;;;;;;;5.72;3.22;;;;;;;;;;5058842;28;20430;-79
2023/09/18 10:32:40;;;;;;;8.18;3.28;;;;;;;;;;5057958;28;20045;-77
2023/09/18 10:35:08;;;;;;;4.45;3.03;;;;;;;;;;5058731;28;20063;-78
2023/09/18 10:37:35;;;;;;;4.82;2.80;;;;;;;;;;5055691;28;20049;-79
2023/09/18 10:40:01;;;;;;;4.43;2.45;;;;;;;;;;5059679;28;20049;-78
2023/09/18 10:42:30;;;;;;;8.50;3.03;;;;;;;;;;5059370;28;20031;-77
2023/09/18 10:44:56;;;;;;;5.57;2.90;;;;;;;;;;5059116;28;20021;-78
2023/09/18 10:47:22;;;;;;;7.30;3.60;;;;;;;;;;5055601;28;20121;-77
2023/09/18 10:49:50;;;;;;;6.40;2.38;;;;;;;;;;5057901;28;20154;-79
2023/09/18 10:52:16;;;;;;;7.75;2.90;;;;;;;;;;5059428;28;20017;-77
2023/09/18 10:54:42;;;;;;;6.63;3.78;;;;;;;;;;5057978;28;20028;-78
2023/09/18 10:57:09;;;;;;;4.78;2.60;;;;;;;;;;5059488;28;20029;-78
2023/09/18 10:59:35;;;;;;;7.10;2.88;;;;;;;;;;5066386;28;20033;-77
2023/09/18 11:02:07;;;;;;;7.70;2.85;;;;;;;;;;5059221;28;20498;-79
2023/09/18 11:04:33;;;;;;;9.38;3.25;;;;;;;;;;5058080;28;20120;-78
2023/09/18 11:06:59;;;;;;;7.63;3.70;;;;;;;;;;5057607;28;20025;-76
2023/09/18 11:09:26;;;;;;;7.75;3.88;;;;;;;;;;5057703;28;20024;-80
2023/09/18 11:11:57;;;;;;;12.80;3.85;;;;;;;;;;5058054;28;20047;-76
2023/09/18 11:14:23;;;;;;;13.30;4.43;;;;;;;;;;5054278;28;20496;-78
2023/09/18 11:16:50;;;;;;;10.20;3.83;;;;;;;;;;5060011;28;20037;-79
2023/09/18 11:19:19;;;;;;;11.13;3.90;;;;;;;;;;5081309;28;20115;-79
2023/09/18 11:21:45;;;;;;;6.90;3.17;;;;;;;;;;5079795;28;20020;-79
2023/09/18 11:24:22;;;;;;;6.13;3.20;;;;;;;;;;5079150;28;20039;-78
2023/09/18 11:26:49;;;;;;;12.10;3.53;;;;;;;;;;5075436;28;20017;-77
2023/09/18 11:29:18;;;;;;;11.20;3.20;;;;;;;;;;5067576;28;20066;-81
2023/09/18 11:31:45;;;;;;;7.93;3.13;;;;;;;;;;5078680;28;20103;-78
2023/09/18 11:34:15;;;;;;;7.20;2.90;;;;;;;;;;5069771;28;20033;-78
2023/09/18 11:36:42;;;;;;;9.70;3.95;;;;;;;;;;5061463;28;20120;-79
2023/09/18 11:39:09;;;;;;;7.20;3.40;;;;;;;;;;5060780;28;20104;-79
2023/09/18 11:41:39;;;;;;;7.30;3.47;;;;;;;;;;5062053;28;20194;-78
2023/09/18 11:44:14;;;;;;;5.60;3.10;;;;;;;;;;5061274;28;20045;-80
2023/09/18 11:46:41;;;;;;;10.07;3.33;;;;;;;;;;5058809;28;20017;-77
2023/09/18 11:49:14;;;;;;;7.30;2.80;;;;;;;;;;5058605;28;20025;-81
2023/09/18 11:51:41;;;;;;;5.90;2.33;;;;;;;;;;5059908;28;20043;-82
2023/09/18 11:54:08;;;;;;;9.32;2.38;;;;;;;;;;5065086;28;20090;-80
2023/09/18 11:56:34;;;;;;;8.05;2.38;;;;;;;;;;5060910;28;20029;-80
2023/09/18 11:59:04;;;;;;;7.53;2.47;;;;;;;;;;5079531;28;20027;-81
2023/09/18 12:01:31;;;;;;;7.45;2.20;;;;;;;;;;5074371;28;20028;-82
2023/09/18 12:04:13;;;;;;;9.43;2.55;;;;;;;;;;5072318;28;20029;-80
2023/09/18 12:06:40;;;;;;;6.57;1.90;;;;;;;;;;5073644;28;20025;-83
2023/09/18 12:09:06;;;;;;;8.75;2.38;;;;;;;;;;5080431;28;20031;-83
2023/09/18 12:11:35;;;;;;;5.15;2.03;;;;;;;;;;5095642;28;20020;-86
2023/09/18 12:14:05;;;;;;;2.75;1.42;;;;;;;;;;5093281;28;20013;-80
2023/09/18 12:16:31;;;;;;;5.50;1.60;;;;;;;;;;5094845;28;20024;-82
2023/09/18 12:18:59;;;;;;;6.13;1.60;;;;;;;;;;5097647;28;20036;-83
2023/09/18 12:21:25;;;;;;;5.15;1.42;;;;;;;;;;5099108;28;20013;-81
2023/09/18 12:23:51;;;;;;;5.40;1.25;;;;;;;;;;5098574;28;20046;-81
2023/09/18 12:26:20;;;;;;;5.00;1.38;;;;;;;;;;5099272;28;20004;-82
2023/09/18 12:28:46;;;;;;;4.65;1.63;;;;;;;;;;5079594;28;20013;-84
2023/09/18 12:31:13;;;;;;;7.03;1.75;;;;;;;;;;5091064;28;20036;-84
2023/09/18 12:33:40;;;;;;;1.55;1.30;;;;;;;;;;5099292;28;20100;-82
2023/09/18 12:36:09;;;;;;;3.55;1.52;;;;;;;;;;5099010;28;20036;-82
2023/09/18 12:38:36;;;;;;;3.28;1.20;;;;;;;;;;5099761;28;20016;-85
2023/09/18 12:41:08;;;;;;;2.25;1.42;;;;;;;;;;5100100;28;20014;-82
2023/09/18 12:43:42;;;;;;;2.45;1.75;;;;;;;;;;5100315;28;20008;-84
2023/09/18 12:46:23;;;;;;;3.42;1.50;;;;;;;;;;5097373;28;20034;-79
2023/09/18 12:48:50;;;;;;;7.63;2.03;;;;;;;;;;5096621;28;20098;-83
2023/09/18 12:51:31;;;;;;;7.60;1.90;;;;;;;;;;5098812;28;20021;-83
2023/09/18 12:54:06;;;;;;;2.47;1.70;;;;;;;;;;5100788;28;20035;-83
2023/09/18 12:56:32;;;;;;;2.45;1.45;;;;;;;;;;5100366;28;20005;-83
2023/09/18 12:58:59;;;;;;;3.78;2.05;;;;;;;;;;5100135;28;20031;-80
2023/09/18 13:01:33;;;;;;;3.58;1.38;;;;;;;;;;5085003;28;20020;-80
2023/09/18 13:04:05;;;;;;;4.32;1.52;;;;;;;;;;5098962;28;20048;-82
2023/09/18 13:06:31;;;;;;;1.38;1.00;;;;;;;;;;5100677;28;20016;-83
2023/09/18 13:09:15;;;;;;;1.60;1.23;;;;;;;;;;5100491;28;20056;-84
2023/09/18 13:11:54;;;;;;;3.95;1.25;;;;;;;;;;5100664;28;20037;-84
2023/09/18 13:14:20;;;;;;;4.32;1.63;;;;;;;;;;5100628;28;20029;-84
2023/09/18 13:16:46;;;;;;;1.00;0.90;;;;;;;;;;5100362;28;20012;-82
2023/09/18 13:19:13;;;;;;;1.50;1.00;;;;;;;;;;5100946;28;20020;-82
2023/09/18 13:21:39;;;;;;;1.13;0.98;;;;;;;;;;5098687;28;20073;-82
2023/09/18 13:24:06;;;;;;;2.75;0.85;;;;;;;;;;5099563;28;20024;-84
2023/09/18 13:26:32;;;;;;;2.65;1.08;;;;;;;;;;5098902;28;20020;-83
2023/09/18 13:28:59;;;;;;;2.80;1.10;;;;;;;;;;5090413;28;20028;-82
2023/09/18 13:31:31;;;;;;;2.88;1.50;;;;;;;;;;5083398;28;20013;-81
2023/09/18 13:33:57;;;;;;;11.30;1.40;;;;;;;;;;5087726;28;20028;-85
2023/09/18 13:36:23;;;;;;;2.03;1.25;;;;;;;;;;5078633;28;20040;-79
2023/09/18 13:38:49;;;;;;;4.57;1.40;;;;;;;;;;5078927;28;20039;-85
2023/09/18 13:41:16;;;;;;;1.38;1.17;;;;;;;;;;5078051;28;20013;-84
2023/09/18 13:43:42;;;;;;;3.88;1.48;;;;;;;;;;5078481;28;20064;-84
2023/09/18 13:46:08;;;;;;;1.15;0.90;;;;;;;;;;5079282;28;20018;-85
2023/09/18 13:48:34;;;;;;;3.60;1.60;;;;;;;;;;5079122;28;20025;-82
2023/09/18 13:51:01;;;;;;;2.40;1.33;;;;;;;;;;5078941;28;20041;-82
2023/09/18 13:53:28;;;;;;;1.80;1.27;;;;;;;;;;5093789;28;20039;-84
2023/09/18 13:55:56;;;;;;;1.33;1.13;;;;;;;;;;5097224;28;20032;-84
2023/09/18 13:58:22;;;;;;;0.95;0.88;;;;;;;;;;5092000;28;20013;-85
2023/09/18 14:00:49;;;;;;;1.05;0.77;;;;;;;;;;5078964;28;20017;-88
2023/09/18 14:03:17;;;;;;;1.77;0.95;;;;;;;;;;5079208;28;20033;-83
2023/09/18 14:05:43;;;;;;;0.80;0.80;;;;;;;;;;5079065;28;20059;-81
2023/09/18 14:08:09;;;;;;;1.02;1.02;;;;;;;;;;5078730;28;20065;-82
2023/09/18 14:10:35;;;;;;;0.60;0.60;;;;;;;;;;5078504;28;20434;-83
2023/09/18 14:13:01;;;;;;;0.60;0.60;;;;;;;;;;5085025;28;20005;-81
2023/09/18 14:15:29;;;;;;;0.65;0.65;;;;;;;;;;5079870;28;20035;-84
2023/09/18 14:17:55;;;;;;;1.05;0.70;;;;;;;;;;5076675;28;20005;-82
2023/09/18 14:20:24;;;;;;;0.95;0.60;;;;;;;;;;5077400;28;20033;-84
2023/09/18 14:22:50;;;;;;;0.60;0.60;;;;;;;;;;5077472;28;20103;-84
2023/09/18 14:25:16;;;;;;;0.50;0.50;;;;;;;;;;5078385;28;20051;-84
2023/09/18 14:27:43;;;;;;;0.63;0.63;;;;;;;;;;5078249;28;20018;-83
2023/09/18 14:30:09;;;;;;;0.43;0.43;;;;;;;;;;5077829;28;20039;-83
2023/09/18 14:32:36;;;;;;;0.40;0.40;;;;;;;;;;5083007;28;20032;-84
2023/09/18 14:35:03;;;;;;;0.55;0.55;;;;;;;;;;5090488;28;20029;-83
2023/09/18 14:37:29;;;;;;;0.43;0.43;;;;;;;;;;5097812;28;20029;-82
2023/09/18 14:39:55;;;;;;;1.48;0.70;;;;;;;;;;5096517;28;20029;-81
2023/09/18 14:42:21;;;;;;;0.47;0.47;;;;;;;;;;5095449;28;20033;-82
2023/09/18 14:44:47;;;;;;;0.50;0.50;;;;;;;;;;5096736;28;20055;-82
2023/09/18 14:47:15;;;;;;;0.43;0.40;;;;;;;;;;5081154;28;20040;-80
2023/09/18 14:49:43;;;;;;;0.55;0.55;;;;;;;;;;5097615;28;20037;-81